sensor_id;sensor_type;location;lat;lon;timestamp;pressure;altitude;pressure_sealevel;temperature;humidity
75640;BME280;64233;51.486;6.332;2023-02-15T00:01:16;102621.16;;;1.04;100.00
75640;BME280;64233;51.486;6.332;2023-02-15T00:03:41;102617.56;;;1.05;100.00
75640;BME280;64233;51.486;6.332;2023-02-15T00:06:07;102618.22;;;1.07;100.00
75640;BME280;64233;51.486;6.332;2023-02-15T00:08:32;102610.28;;;1.07;100.00
75640;BME280;64233;51.486;6.332;2023-02-15T00:11:09;102609.19;;;1.10;100.00
75640;BME280;64233;51.486;6.332;2023-02-15T00:13:35;102604.72;;;1.00;100.00
75640;BME280;64233;51.486;6.332;2023-02-15T00:16:19;102600.69;;;0.96;100.00
75640;BME280;64233;51.486;6.332;2023-02-15T00:18:44;102598.47;;;0.92;100.00
75640;BME280;64233;51.486;6.332;2023-02-15T00:21:19;102602.09;;;0.91;100.00
75640;BME280;64233;51.486;6.332;2023-02-15T00:23:44;102605.59;;;0.91;100.00
75640;BME280;64233;51.486;6.332;2023-02-15T00:26:11;102598.09;;;0.87;100.00
75640;BME280;64233;51.486;6.332;2023-02-15T00:28:37;102599.06;;;0.76;100.00
75640;BME280;64233;51.486;6.332;2023-02-15T00:31:08;102593.78;;;0.76;100.00
75640;BME280;64233;51.486;6.332;2023-02-15T00:33:34;102590.56;;;0.72;100.00
75640;BME280;64233;51.486;6.332;2023-02-15T00:36:00;102591.00;;;0.77;100.00
75640;BME280;64233;51.486;6.332;2023-02-15T00:38:27;102587.25;;;0.80;100.00
75640;BME280;64233;51.486;6.332;2023-02-15T00:40:58;102590.03;;;0.78;100.00
75640;BME280;64233;51.486;6.332;2023-02-15T00:43:23;102586.16;;;0.73;100.00
75640;BME280;64233;51.486;6.332;2023-02-15T00:45:49;102594.47;;;0.68;100.00
75640;BME280;64233;51.486;6.332;2023-02-15T00:48:14;102599.22;;;0.64;100.00
75640;BME280;64233;51.486;6.332;2023-02-15T00:50:40;102592.25;;;0.63;100.00
75640;BME280;64233;51.486;6.332;2023-02-15T00:53:05;102595.31;;;0.59;100.00
75640;BME280;64233;51.486;6.332;2023-02-15T00:55:31;102590.19;;;0.47;100.00
75640;BME280;64233;51.486;6.332;2023-02-15T00:57:56;102590.63;;;0.43;100.00
75640;BME280;64233;51.486;6.332;2023-02-15T01:00:21;102586.84;;;0.45;100.00
75640;BME280;64233;51.486;6.332;2023-02-15T01:02:46;102587.25;;;0.50;100.00
75640;BME280;64233;51.486;6.332;2023-02-15T01:05:12;102590.47;;;0.44;100.00
75640;BME280;64233;51.486;6.332;2023-02-15T01:07:37;102586.84;;;0.45;100.00
75640;BME280;64233;51.486;6.332;2023-02-15T01:10:04;102579.31;;;0.41;100.00
75640;BME280;64233;51.486;6.332;2023-02-15T01:12:29;102587.81;;;0.34;100.00
75640;BME280;64233;51.486;6.332;2023-02-15T01:14:54;102585.31;;;0.23;100.00
75640;BME280;64233;51.486;6.332;2023-02-15T01:17:19;102585.00;;;0.16;100.00
75640;BME280;64233;51.486;6.332;2023-02-15T01:19:45;102580.00;;;0.13;100.00
75640;BME280;64233;51.486;6.332;2023-02-15T01:22:10;102576.41;;;0.14;100.00
75640;BME280;64233;51.486;6.332;2023-02-15T01:24:35;102570.72;;;0.19;100.00
75640;BME280;64233;51.486;6.332;2023-02-15T01:27:01;102570.72;;;0.19;100.00
75640;BME280;64233;51.486;6.332;2023-02-15T01:29:26;102569.88;;;0.19;100.00
75640;BME280;64233;51.486;6.332;2023-02-15T01:31:51;102572.53;;;0.19;100.00
75640;BME280;64233;51.486;6.332;2023-02-15T01:34:16;102577.22;;;0.15;100.00
75640;BME280;64233;51.486;6.332;2023-02-15T01:36:42;102560.94;;;0.10;100.00
75640;BME280;64233;51.486;6.332;2023-02-15T01:39:07;102565.41;;;0.09;100.00
75640;BME280;64233;51.486;6.332;2023-02-15T01:41:32;102556.91;;;0.06;100.00
75640;BME280;64233;51.486;6.332;2023-02-15T01:44:00;102547.78;;;0.00;100.00
75640;BME280;64233;51.486;6.332;2023-02-15T01:46:39;102550.28;;;0.02;100.00
75640;BME280;64233;51.486;6.332;2023-02-15T01:49:15;102558.88;;;0.04;100.00
75640;BME280;64233;51.486;6.332;2023-02-15T01:51:43;102552.06;;;0.01;100.00
75640;BME280;64233;51.486;6.332;2023-02-15T01:54:23;102546.63;;;0.03;100.00
75640;BME280;64233;51.486;6.332;2023-02-15T01:56:52;102545.81;;;0.02;100.00
75640;BME280;64233;51.486;6.332;2023-02-15T01:59:21;102543.16;;;0.02;100.00
75640;BME280;64233;51.486;6.332;2023-02-15T02:01:51;102547.50;;;0.03;100.00
75640;BME280;64233;51.486;6.332;2023-02-15T02:06:48;102540.66;;;0.01;100.00
75640;BME280;64233;51.486;6.332;2023-02-15T02:09:14;102533.72;;;-0.01;100.00
75640;BME280;64233;51.486;6.332;2023-02-15T02:11:47;102537.31;;;-0.02;100.00
75640;BME280;64233;51.486;6.332;2023-02-15T02:14:20;102528.72;;;-0.04;100.00
75640;BME280;64233;51.486;6.332;2023-02-15T02:19:45;102526.34;;;-0.07;100.00
75640;BME280;64233;51.486;6.332;2023-02-15T02:22:31;102522.44;;;-0.12;100.00
75640;BME280;64233;51.486;6.332;2023-02-15T02:28:57;102515.50;;;-0.13;100.00
75640;BME280;64233;51.486;6.332;2023-02-15T02:33:59;102510.50;;;-0.16;100.00
75640;BME280;64233;51.486;6.332;2023-02-15T02:36:40;102492.69;;;-0.14;100.00
75640;BME280;64233;51.486;6.332;2023-02-15T02:39:14;102495.19;;;-0.13;100.00
75640;BME280;64233;51.486;6.332;2023-02-15T02:42:16;102495.34;;;-0.14;100.00
75640;BME280;64233;51.486;6.332;2023-02-15T02:44:47;102502.16;;;-0.12;100.00
75640;BME280;64233;51.486;6.332;2023-02-15T02:49:45;102495.78;;;-0.09;100.00
75640;BME280;64233;51.486;6.332;2023-02-15T02:55:03;102489.25;;;-0.15;100.00
75640;BME280;64233;51.486;6.332;2023-02-15T02:57:32;102482.13;;;-0.14;100.00
75640;BME280;64233;51.486;6.332;2023-02-15T02:59:58;102483.53;;;-0.20;100.00
75640;BME280;64233;51.486;6.332;2023-02-15T03:02:32;102487.69;;;-0.27;100.00
75640;BME280;64233;51.486;6.332;2023-02-15T03:05:03;102491.03;;;-0.25;100.00
75640;BME280;64233;51.486;6.332;2023-02-15T03:07:32;102483.13;;;-0.25;100.00
75640;BME280;64233;51.486;6.332;2023-02-15T03:10:00;102474.34;;;-0.26;100.00
75640;BME280;64233;51.486;6.332;2023-02-15T03:12:36;102482.28;;;-0.26;100.00
75640;BME280;64233;51.486;6.332;2023-02-15T03:17:43;102468.94;;;-0.24;100.00
75640;BME280;64233;51.486;6.332;2023-02-15T03:20:23;102467.84;;;-0.22;100.00
75640;BME280;64233;51.486;6.332;2023-02-15T03:22:58;102461.28;;;-0.27;100.00
75640;BME280;64233;51.486;6.332;2023-02-15T03:25:34;102454.47;;;-0.30;100.00
75640;BME280;64233;51.486;6.332;2023-02-15T03:28:03;102459.22;;;-0.33;100.00
75640;BME280;64233;51.486;6.332;2023-02-15T03:30:31;102468.66;;;-0.41;100.00
75640;BME280;64233;51.486;6.332;2023-02-15T03:32:58;102462.94;;;-0.46;100.00
75640;BME280;64233;51.486;6.332;2023-02-15T03:35:28;102456.41;;;-0.52;100.00
75640;BME280;64233;51.486;6.332;2023-02-15T03:38:00;102468.06;;;-0.54;100.00
75640;BME280;64233;51.486;6.332;2023-02-15T03:40:30;102466.41;;;-0.55;100.00
75640;BME280;64233;51.486;6.332;2023-02-15T03:45:57;102455.59;;;-0.52;100.00
75640;BME280;64233;51.486;6.332;2023-02-15T03:48:28;102460.84;;;-0.52;100.00
75640;BME280;64233;51.486;6.332;2023-02-15T03:50:58;102457.81;;;-0.47;100.00
75640;BME280;64233;51.486;6.332;2023-02-15T03:53:45;102456.09;;;-0.58;100.00
75640;BME280;64233;51.486;6.332;2023-02-15T03:56:12;102449.56;;;-0.64;100.00
75640;BME280;64233;51.486;6.332;2023-02-15T03:58:37;102455.97;;;-0.66;100.00
75640;BME280;64233;51.486;6.332;2023-02-15T04:01:27;102462.34;;;-0.69;100.00
75640;BME280;64233;51.486;6.332;2023-02-15T04:04:21;102453.72;;;-0.71;100.00
75640;BME280;64233;51.486;6.332;2023-02-15T04:06:47;102458.03;;;-0.70;100.00
75640;BME280;64233;51.486;6.332;2023-02-15T04:09:14;102461.50;;;-0.70;100.00
75640;BME280;64233;51.486;6.332;2023-02-15T04:11:58;102459.84;;;-0.71;100.00
75640;BME280;64233;51.486;6.332;2023-02-15T04:14:23;102458.44;;;-0.75;100.00
75640;BME280;64233;51.486;6.332;2023-02-15T04:17:08;102446.94;;;-0.74;100.00
75640;BME280;64233;51.486;6.332;2023-02-15T04:19:34;102443.59;;;-0.76;100.00
75640;BME280;64233;51.486;6.332;2023-02-15T04:22:17;102447.03;;;-0.85;100.00
75640;BME280;64233;51.486;6.332;2023-02-15T04:25:01;102438.28;;;-0.85;100.00
75640;BME280;64233;51.486;6.332;2023-02-15T04:27:49;102442.72;;;-0.86;100.00
75640;BME280;64233;51.486;6.332;2023-02-15T04:30:23;102448.69;;;-0.84;100.00
75640;BME280;64233;51.486;6.332;2023-02-15T04:32:48;102452.19;;;-0.83;100.00
75640;BME280;64233;51.486;6.332;2023-02-15T04:35:14;102446.63;;;-0.80;100.00
75640;BME280;64233;51.486;6.332;2023-02-15T04:37:40;102437.63;;;-0.78;100.00
75640;BME280;64233;51.486;6.332;2023-02-15T04:40:07;102435.66;;;-0.76;100.00
75640;BME280;64233;51.486;6.332;2023-02-15T04:42:33;102438.31;;;-0.76;100.00
75640;BME280;64233;51.486;6.332;2023-02-15T04:44:58;102440.13;;;-0.76;100.00
75640;BME280;64233;51.486;6.332;2023-02-15T04:47:24;102430.97;;;-0.72;100.00
75640;BME280;64233;51.486;6.332;2023-02-15T04:49:49;102437.34;;;-0.75;100.00
75640;BME280;64233;51.486;6.332;2023-02-15T04:52:21;102430.25;;;-0.74;100.00
75640;BME280;64233;51.486;6.332;2023-02-15T04:54:53;102434.13;;;-0.78;100.00
75640;BME280;64233;51.486;6.332;2023-02-15T04:57:18;102429.13;;;-0.81;100.00
75640;BME280;64233;51.486;6.332;2023-02-15T04:59:43;102430.94;;;-0.82;100.00
75640;BME280;64233;51.486;6.332;2023-02-15T05:02:08;102424.00;;;-0.83;100.00
75640;BME280;64233;51.486;6.332;2023-02-15T05:04:34;102432.34;;;-0.78;100.00
75640;BME280;64233;51.486;6.332;2023-02-15T05:06:59;102426.66;;;-0.73;100.00
75640;BME280;64233;51.486;6.332;2023-02-15T05:09:24;102427.47;;;-0.73;100.00
75640;BME280;64233;51.486;6.332;2023-02-15T05:11:50;102422.34;;;-0.74;100.00
75640;BME280;64233;51.486;6.332;2023-02-15T05:14:15;102429.44;;;-0.75;100.00
75640;BME280;64233;51.486;6.332;2023-02-15T05:16:40;102415.84;;;-0.70;100.00
75640;BME280;64233;51.486;6.332;2023-02-15T05:19:05;102422.78;;;-0.69;100.00
75640;BME280;64233;51.486;6.332;2023-02-15T05:21:31;102424.03;;;-0.73;100.00
75640;BME280;64233;51.486;6.332;2023-02-15T05:23:57;102423.31;;;-0.75;100.00
75640;BME280;64233;51.486;6.332;2023-02-15T05:26:24;102413.03;;;-0.78;100.00
75640;BME280;64233;51.486;6.332;2023-02-15T05:29:09;102410.53;;;-0.80;100.00
75640;BME280;64233;51.486;6.332;2023-02-15T05:31:35;102406.13;;;-0.79;100.00
75640;BME280;64233;51.486;6.332;2023-02-15T05:34:01;102406.22;;;-0.81;100.00
75640;BME280;64233;51.486;6.332;2023-02-15T05:36:26;102414.28;;;-0.82;100.00
75640;BME280;64233;51.486;6.332;2023-02-15T05:38:51;102408.88;;;-0.91;100.00
75640;BME280;64233;51.486;6.332;2023-02-15T05:41:17;102410.50;;;-0.90;100.00
75640;BME280;64233;51.486;6.332;2023-02-15T05:43:42;102410.78;;;-0.93;100.00
75640;BME280;64233;51.486;6.332;2023-02-15T05:46:08;102409.25;;;-0.95;100.00
75640;BME280;64233;51.486;6.332;2023-02-15T05:48:34;102410.34;;;-0.98;100.00
75640;BME280;64233;51.486;6.332;2023-02-15T05:51:02;102406.88;;;-0.98;100.00
75640;BME280;64233;51.486;6.332;2023-02-15T05:53:29;102410.22;;;-0.96;100.00
75640;BME280;64233;51.486;6.332;2023-02-15T05:55:55;102403.97;;;-0.95;100.00
75640;BME280;64233;51.486;6.332;2023-02-15T05:58:25;102403.84;;;-0.94;100.00
75640;BME280;64233;51.486;6.332;2023-02-15T06:00:50;102407.31;;;-0.93;100.00
75640;BME280;64233;51.486;6.332;2023-02-15T06:03:16;102406.75;;;-0.97;100.00
75640;BME280;64233;51.486;6.332;2023-02-15T06:05:41;102401.19;;;-0.94;100.00
75640;BME280;64233;51.486;6.332;2023-02-15T06:08:07;102410.34;;;-0.98;100.00
75640;BME280;64233;51.486;6.332;2023-02-15T06:10:32;102411.47;;;-1.00;100.00
75640;BME280;64233;51.486;6.332;2023-02-15T06:12:57;102412.88;;;-0.96;100.00
75640;BME280;64233;51.486;6.332;2023-02-15T06:15:22;102403.41;;;-0.99;100.00
75640;BME280;64233;51.486;6.332;2023-02-15T06:17:48;102412.28;;;-1.00;100.00
75640;BME280;64233;51.486;6.332;2023-02-15T06:20:13;102406.31;;;-1.02;100.00
75640;BME280;64233;51.486;6.332;2023-02-15T06:22:38;102410.88;;;-1.04;100.00
75640;BME280;64233;51.486;6.332;2023-02-15T06:25:03;102414.78;;;-0.98;100.00
75640;BME280;64233;51.486;6.332;2023-02-15T06:27:29;102424.38;;;-0.97;100.00
75640;BME280;64233;51.486;6.332;2023-02-15T06:29:54;102420.63;;;-0.95;100.00
75640;BME280;64233;51.486;6.332;2023-02-15T06:32:19;102426.06;;;-0.96;100.00
75640;BME280;64233;51.486;6.332;2023-02-15T06:34:45;102427.16;;;-0.99;100.00
75640;BME280;64233;51.486;6.332;2023-02-15T06:37:10;102425.63;;;-0.92;100.00
75640;BME280;64233;51.486;6.332;2023-02-15T06:39:36;102428.41;;;-0.93;100.00
75640;BME280;64233;51.486;6.332;2023-02-15T06:42:01;102424.50;;;-0.99;100.00
75640;BME280;64233;51.486;6.332;2023-02-15T06:44:26;102420.88;;;-0.98;100.00
75640;BME280;64233;51.486;6.332;2023-02-15T06:46:52;102427.41;;;-1.02;100.00
75640;BME280;64233;51.486;6.332;2023-02-15T06:49:17;102430.88;;;-1.01;100.00
75640;BME280;64233;51.486;6.332;2023-02-15T06:51:42;102424.50;;;-0.99;100.00
75640;BME280;64233;51.486;6.332;2023-02-15T06:54:07;102422.25;;;-1.04;100.00
75640;BME280;64233;51.486;6.332;2023-02-15T06:56:33;102424.47;;;-1.09;100.00
75640;BME280;64233;51.486;6.332;2023-02-15T06:58:58;102420.59;;;-1.05;100.00
75640;BME280;64233;51.486;6.332;2023-02-15T07:01:23;102416.88;;;-1.02;100.00
75640;BME280;64233;51.486;6.332;2023-02-15T07:03:49;102411.72;;;-1.04;100.00
75640;BME280;64233;51.486;6.332;2023-02-15T07:06:14;102409.78;;;-1.01;100.00
75640;BME280;64233;51.486;6.332;2023-02-15T07:08:40;102405.06;;;-0.98;100.00
75640;BME280;64233;51.486;6.332;2023-02-15T07:11:06;102409.25;;;-0.95;100.00
75640;BME280;64233;51.486;6.332;2023-02-15T07:13:50;102398.41;;;-0.92;100.00
75640;BME280;64233;51.486;6.332;2023-02-15T07:16:15;102402.03;;;-0.93;100.00
75640;BME280;64233;51.486;6.332;2023-02-15T07:18:40;102397.47;;;-0.91;100.00
75640;BME280;64233;51.486;6.332;2023-02-15T07:21:06;102397.06;;;-0.87;100.00
75640;BME280;64233;51.486;6.332;2023-02-15T07:23:39;102396.66;;;-0.82;100.00
75640;BME280;64233;51.486;6.332;2023-02-15T07:26:05;102383.19;;;-0.79;100.00
75640;BME280;64233;51.486;6.332;2023-02-15T07:28:31;102385.56;;;-0.76;100.00
75640;BME280;64233;51.486;6.332;2023-02-15T07:30:57;102382.66;;;-0.73;100.00
75640;BME280;64233;51.486;6.332;2023-02-15T07:33:22;102383.22;;;-0.69;100.00
75640;BME280;64233;51.486;6.332;2023-02-15T07:35:48;102382.25;;;-0.68;100.00
75640;BME280;64233;51.486;6.332;2023-02-15T07:38:14;102379.34;;;-0.65;100.00
75640;BME280;64233;51.486;6.332;2023-02-15T07:40:39;102376.16;;;-0.59;100.00
75640;BME280;64233;51.486;6.332;2023-02-15T07:43:04;102381.84;;;-0.54;100.00
75640;BME280;64233;51.486;6.332;2023-02-15T07:45:30;102380.75;;;-0.51;100.00
75640;BME280;64233;51.486;6.332;2023-02-15T07:47:55;102382.97;;;-0.46;100.00
75640;BME280;64233;51.486;6.332;2023-02-15T07:50:20;102386.16;;;-0.43;100.00
75640;BME280;64233;51.486;6.332;2023-02-15T07:52:46;102389.06;;;-0.36;100.00
75640;BME280;64233;51.486;6.332;2023-02-15T07:55:11;102383.38;;;-0.31;100.00
75640;BME280;64233;51.486;6.332;2023-02-15T07:57:41;102376.44;;;-0.23;100.00
75640;BME280;64233;51.486;6.332;2023-02-15T08:00:07;102374.63;;;-0.12;100.00
75640;BME280;64233;51.486;6.332;2023-02-15T08:02:32;102378.66;;;-0.08;100.00
75640;BME280;64233;51.486;6.332;2023-02-15T08:04:59;102368.47;;;-0.03;100.00
75640;BME280;64233;51.486;6.332;2023-02-15T08:07:24;102370.00;;;-0.01;100.00
75640;BME280;64233;51.486;6.332;2023-02-15T08:09:49;102367.78;;;0.05;100.00
75640;BME280;64233;51.486;6.332;2023-02-15T08:12:14;102365.53;;;0.10;100.00
75640;BME280;64233;51.486;6.332;2023-02-15T08:14:40;102365.81;;;0.16;100.00
75640;BME280;64233;51.486;6.332;2023-02-15T08:17:05;102359.94;;;0.23;100.00
75640;BME280;64233;51.486;6.332;2023-02-15T08:19:31;102360.34;;;0.28;100.00
75640;BME280;64233;51.486;6.332;2023-02-15T08:22:03;102361.59;;;0.33;100.00
75640;BME280;64233;51.486;6.332;2023-02-15T08:24:34;102344.47;;;0.38;100.00
75640;BME280;64233;51.486;6.332;2023-02-15T08:27:00;102347.25;;;0.46;100.00
75640;BME280;64233;51.486;6.332;2023-02-15T08:29:28;102339.56;;;0.53;100.00
75640;BME280;64233;51.486;6.332;2023-02-15T08:31:57;102337.00;;;0.61;100.00
75640;BME280;64233;51.486;6.332;2023-02-15T08:34:24;102342.41;;;0.69;100.00
75640;BME280;64233;51.486;6.332;2023-02-15T08:36:49;102343.06;;;0.81;100.00
75640;BME280;64233;51.486;6.332;2023-02-15T08:39:16;102341.63;;;0.87;100.00
75640;BME280;64233;51.486;6.332;2023-02-15T08:41:43;102348.13;;;0.92;100.00
75640;BME280;64233;51.486;6.332;2023-02-15T08:44:09;102354.19;;;1.02;100.00
75640;BME280;64233;51.486;6.332;2023-02-15T08:46:39;102351.09;;;1.07;100.00
75640;BME280;64233;51.486;6.332;2023-02-15T08:49:05;102347.84;;;1.13;100.00
75640;BME280;64233;51.486;6.332;2023-02-15T08:51:33;102343.03;;;1.27;100.00
75640;BME280;64233;51.486;6.332;2023-02-15T08:54:01;102339.63;;;1.34;100.00
75640;BME280;64233;51.486;6.332;2023-02-15T08:56:30;102338.56;;;1.45;100.00
75640;BME280;64233;51.486;6.332;2023-02-15T08:58:57;102339.16;;;1.57;100.00
75640;BME280;64233;51.486;6.332;2023-02-15T09:01:25;102342.50;;;1.59;100.00
75640;BME280;64233;51.486;6.332;2023-02-15T09:03:54;102344.69;;;1.64;100.00
75640;BME280;64233;51.486;6.332;2023-02-15T09:06:21;102341.72;;;1.67;100.00
75640;BME280;64233;51.486;6.332;2023-02-15T09:08:47;102341.94;;;1.74;100.00
75640;BME280;64233;51.486;6.332;2023-02-15T09:11:15;102342.63;;;1.76;100.00
75640;BME280;64233;51.486;6.332;2023-02-15T09:13:54;102346.19;;;1.84;100.00
75640;BME280;64233;51.486;6.332;2023-02-15T09:16:21;102350.38;;;1.95;100.00
75640;BME280;64233;51.486;6.332;2023-02-15T09:18:48;102345.81;;;2.05;100.00
75640;BME280;64233;51.486;6.332;2023-02-15T09:21:15;102338.59;;;2.16;100.00
75640;BME280;64233;51.486;6.332;2023-02-15T09:23:42;102336.00;;;2.24;100.00
75640;BME280;64233;51.486;6.332;2023-02-15T09:26:10;102331.09;;;2.37;100.00
75640;BME280;64233;51.486;6.332;2023-02-15T09:28:37;102339.75;;;2.48;100.00
75640;BME280;64233;51.486;6.332;2023-02-15T09:31:07;102329.34;;;2.54;100.00
75640;BME280;64233;51.486;6.332;2023-02-15T09:33:34;102326.91;;;2.69;100.00
75640;BME280;64233;51.486;6.332;2023-02-15T09:36:00;102327.31;;;2.83;100.00
75640;BME280;64233;51.486;6.332;2023-02-15T09:38:25;102334.78;;;2.96;100.00
75640;BME280;64233;51.486;6.332;2023-02-15T09:44:01;102335.69;;;3.21;100.00
75640;BME280;64233;51.486;6.332;2023-02-15T09:49:26;102331.53;;;3.26;100.00
75640;BME280;64233;51.486;6.332;2023-02-15T10:00:40;102335.88;;;3.52;100.00
75640;BME280;64233;51.486;6.332;2023-02-15T10:14:32;102344.34;;;3.89;100.00
75640;BME280;64233;51.486;6.332;2023-02-15T10:17:12;102337.19;;;3.97;100.00
75640;BME280;64233;51.486;6.332;2023-02-15T10:22:41;102345.25;;;4.21;100.00
75640;BME280;64233;51.486;6.332;2023-02-15T10:27:46;102342.13;;;4.17;100.00
75640;BME280;64233;51.486;6.332;2023-02-15T10:30:43;102334.44;;;4.30;100.00
75640;BME280;64233;51.486;6.332;2023-02-15T10:33:42;102326.88;;;4.59;100.00
75640;BME280;64233;51.486;6.332;2023-02-15T10:39:41;102333.94;;;4.75;98.87
75640;BME280;64233;51.486;6.332;2023-02-15T10:42:20;102328.78;;;4.73;98.03
75640;BME280;64233;51.486;6.332;2023-02-15T10:45:12;102334.41;;;4.87;98.37
75640;BME280;64233;51.486;6.332;2023-02-15T10:50:30;102319.06;;;4.89;97.07
75640;BME280;64233;51.486;6.332;2023-02-15T10:53:21;102314.69;;;5.27;97.59
75640;BME280;64233;51.486;6.332;2023-02-15T10:55:56;102312.66;;;5.29;97.62
75640;BME280;64233;51.486;6.332;2023-02-15T11:01:25;102312.94;;;5.58;96.75
75640;BME280;64233;51.486;6.332;2023-02-15T11:06:44;102319.13;;;5.73;97.02
75640;BME280;64233;51.486;6.332;2023-02-15T11:09:14;102315.47;;;5.89;96.02
75640;BME280;64233;51.486;6.332;2023-02-15T11:11:45;102317.97;;;5.91;96.11
75640;BME280;64233;51.486;6.332;2023-02-15T11:14:15;102316.00;;;6.08;94.93
75640;BME280;64233;51.486;6.332;2023-02-15T11:16:46;102317.47;;;6.25;94.88
75640;BME280;64233;51.486;6.332;2023-02-15T11:19:20;102311.66;;;6.51;95.47
75640;BME280;64233;51.486;6.332;2023-02-15T11:21:50;102310.75;;;6.44;93.64
75640;BME280;64233;51.486;6.332;2023-02-15T11:24:19;102302.28;;;6.41;94.06
75640;BME280;64233;51.486;6.332;2023-02-15T11:29:25;102293.69;;;6.75;93.37
75640;BME280;64233;51.486;6.332;2023-02-15T11:31:55;102292.78;;;6.68;91.75
75640;BME280;64233;51.486;6.332;2023-02-15T11:34:27;102299.03;;;6.60;92.51
75640;BME280;64233;51.486;6.332;2023-02-15T11:36:55;102281.72;;;6.71;92.86
75640;BME280;64233;51.486;6.332;2023-02-15T11:39:24;102282.63;;;6.78;92.66
75640;BME280;64233;51.486;6.332;2023-02-15T11:41:57;102286.91;;;6.94;91.26
75640;BME280;64233;51.486;6.332;2023-02-15T11:47:15;102282.97;;;7.12;91.18
75640;BME280;64233;51.486;6.332;2023-02-15T11:49:40;102283.59;;;7.14;90.85
75640;BME280;64233;51.486;6.332;2023-02-15T11:52:10;102279.91;;;7.15;89.38
75640;BME280;64233;51.486;6.332;2023-02-15T11:54:39;102276.06;;;7.17;89.59
75640;BME280;64233;51.486;6.332;2023-02-15T11:57:26;102279.97;;;7.43;89.94
75640;BME280;64233;51.486;6.332;2023-02-15T12:00:46;102269.78;;;7.53;90.75
75640;BME280;64233;51.486;6.332;2023-02-15T12:02:50;102260.94;;;7.53;88.55
75640;BME280;64233;51.486;6.332;2023-02-15T12:05:20;102258.34;;;7.66;88.52
75640;BME280;64233;51.486;6.332;2023-02-15T12:07:54;102248.97;;;7.77;88.03
75640;BME280;64233;51.486;6.332;2023-02-15T12:13:09;102247.97;;;7.85;87.36
75640;BME280;64233;51.486;6.332;2023-02-15T12:15:34;102250.44;;;7.86;88.05
75640;BME280;64233;51.486;6.332;2023-02-15T12:18:01;102245.56;;;7.97;86.63
75640;BME280;64233;51.486;6.332;2023-02-15T12:20:33;102245.00;;;8.08;87.05
75640;BME280;64233;51.486;6.332;2023-02-15T12:23:03;102245.91;;;8.15;88.22
75640;BME280;64233;51.486;6.332;2023-02-15T12:25:41;102244.66;;;8.11;87.51
75640;BME280;64233;51.486;6.332;2023-02-15T12:30:53;102233.81;;;8.33;85.84
75640;BME280;64233;51.486;6.332;2023-02-15T12:33:28;102231.75;;;8.35;84.77
75640;BME280;64233;51.486;6.332;2023-02-15T12:36:06;102231.75;;;8.35;86.60
75640;BME280;64233;51.486;6.332;2023-02-15T12:38:34;102219.44;;;8.40;86.28
75640;BME280;64233;51.486;6.332;2023-02-15T12:41:04;102215.78;;;8.48;87.02
75640;BME280;64233;51.486;6.332;2023-02-15T12:43:37;102217.25;;;8.57;86.39
75640;BME280;64233;51.486;6.332;2023-02-15T12:46:25;102214.97;;;8.54;85.95
75640;BME280;64233;51.486;6.332;2023-02-15T12:51:54;102219.34;;;8.62;85.38
75640;BME280;64233;51.486;6.332;2023-02-15T12:54:41;102209.25;;;8.71;85.50
75640;BME280;64233;51.486;6.332;2023-02-15T12:57:28;102207.66;;;8.83;84.33
75640;BME280;64233;51.486;6.332;2023-02-15T13:00:01;102199.00;;;8.88;85.46
75640;BME280;64233;51.486;6.332;2023-02-15T13:08:10;102202.09;;;9.18;85.14
75640;BME280;64233;51.486;6.332;2023-02-15T13:10:41;102191.16;;;9.20;85.39
75640;BME280;64233;51.486;6.332;2023-02-15T13:13:19;102193.00;;;9.12;84.86
75640;BME280;64233;51.486;6.332;2023-02-15T13:15:49;102192.81;;;9.14;84.56
75640;BME280;64233;51.486;6.332;2023-02-15T13:18:38;102189.91;;;9.16;85.54
75640;BME280;64233;51.486;6.332;2023-02-15T13:21:16;102184.34;;;9.24;84.73
75640;BME280;64233;51.486;6.332;2023-02-15T13:26:48;102179.22;;;9.22;84.25
75640;BME280;64233;51.486;6.332;2023-02-15T13:29:26;102171.16;;;9.22;84.87
75640;BME280;64233;51.486;6.332;2023-02-15T13:31:53;102175.69;;;9.28;86.14
75640;BME280;64233;51.486;6.332;2023-02-15T13:34:32;102167.84;;;9.40;83.86
75640;BME280;64233;51.486;6.332;2023-02-15T13:37:06;102168.47;;;9.49;84.36
75640;BME280;64233;51.486;6.332;2023-02-15T13:39:44;102158.75;;;9.48;84.07
75640;BME280;64233;51.486;6.332;2023-02-15T13:47:45;102161.59;;;9.73;84.32
75640;BME280;64233;51.486;6.332;2023-02-15T13:50:45;102150.00;;;9.79;84.17
75640;BME280;64233;51.486;6.332;2023-02-15T13:59:01;102159.72;;;9.74;84.86
75640;BME280;64233;51.486;6.332;2023-02-15T14:01:39;102153.34;;;9.75;83.89
75640;BME280;64233;51.486;6.332;2023-02-15T14:07:05;102150.25;;;9.71;84.38
75640;BME280;64233;51.486;6.332;2023-02-15T14:09:56;102147.16;;;9.68;84.96
75640;BME280;64233;51.486;6.332;2023-02-15T14:12:40;102148.19;;;9.67;84.29
75640;BME280;64233;51.486;6.332;2023-02-15T14:15:10;102125.50;;;9.62;84.86
75640;BME280;64233;51.486;6.332;2023-02-15T14:17:53;102130.06;;;9.62;84.38
75640;BME280;64233;51.486;6.332;2023-02-15T14:20:25;102127.00;;;9.58;84.36
75640;BME280;64233;51.486;6.332;2023-02-15T14:25:49;102133.53;;;9.69;86.02
75640;BME280;64233;51.486;6.332;2023-02-15T14:28:27;102122.81;;;9.69;86.34
75640;BME280;64233;51.486;6.332;2023-02-15T14:30:55;102118.69;;;9.67;85.96
75640;BME280;64233;51.486;6.332;2023-02-15T14:35:55;102117.47;;;9.62;85.76
75640;BME280;64233;51.486;6.332;2023-02-15T14:38:41;102125.13;;;9.59;86.01
75640;BME280;64233;51.486;6.332;2023-02-15T14:41:17;102111.50;;;9.60;85.97
75640;BME280;64233;51.486;6.332;2023-02-15T14:46:38;102121.44;;;9.60;85.55
75640;BME280;64233;51.486;6.332;2023-02-15T14:49:20;102118.53;;;9.61;85.56
75640;BME280;64233;51.486;6.332;2023-02-15T14:56:44;102105.94;;;9.69;84.71
75640;BME280;64233;51.486;6.332;2023-02-15T15:04:27;102103.59;;;9.79;82.47